Time;durP1;ratioP1;P1;durP2;ratioP2;P2;SDS_P1;SDS_P2;PMS_P1;PMS_P2;Temp;Humidity;BMP_temperature;BMP_pressure;BME280_temperature;BME280_humidity;BME280_pressure;Samples;Min_cycle;Max_cycle;Signal;HPM_P1;HPM_P2
2022/07/03 00:01:48;;;;;;;4.28;1.40;;;;;;;;;;5033565;28;20244;-76
2022/07/03 00:04:14;;;;;;;1.20;1.10;;;;;;;;;;5076620;23;20632;-80
2022/07/03 00:06:42;;;;;;;2.25;1.25;;;;;;;;;;5076507;28;20255;-82
2022/07/03 00:09:07;;;;;;;2.30;1.40;;;;;;;;;;5057911;28;20347;-80
2022/07/03 00:11:33;;;;;;;2.95;1.30;;;;;;;;;;5057598;28;20258;-82
2022/07/03 00:13:59;;;;;;;1.63;1.50;;;;;;;;;;5054688;28;20639;-82
2022/07/03 00:16:24;;;;;;;1.35;1.10;;;;;;;;;;5033090;28;20218;-82
2022/07/03 00:18:50;;;;;;;1.10;1.00;;;;;;;;;;5041063;28;20248;-82
2022/07/03 00:21:19;;;;;;;1.33;1.17;;;;;;;;;;5076570;28;20259;-82
2022/07/03 00:23:46;;;;;;;1.25;1.10;;;;;;;;;;5063210;28;20219;-81
2022/07/03 00:26:14;;;;;;;1.10;1.00;;;;;;;;;;5036862;28;20211;-82
2022/07/03 00:28:41;;;;;;;2.72;1.25;;;;;;;;;;4962015;28;20230;-82
2022/07/03 00:31:07;;;;;;;1.52;1.10;;;;;;;;;;5041692;28;20688;-82
2022/07/03 00:33:33;;;;;;;1.85;1.25;;;;;;;;;;5042411;28;20226;-82
2022/07/03 00:35:58;;;;;;;1.90;1.10;;;;;;;;;;5041929;28;20688;-81
2022/07/03 00:38:24;;;;;;;1.40;1.27;;;;;;;;;;5061847;28;20227;-82
2022/07/03 00:41:08;;;;;;;1.10;1.00;;;;;;;;;;5047807;28;20218;-83
2022/07/03 00:43:34;;;;;;;1.35;1.25;;;;;;;;;;5061631;28;20298;-83
2022/07/03 00:46:20;;;;;;;1.88;1.20;;;;;;;;;;5045641;28;20233;-81
2022/07/03 00:48:46;;;;;;;1.50;1.30;;;;;;;;;;4941881;28;20760;-82
2022/07/03 00:51:14;;;;;;;2.53;1.10;;;;;;;;;;4998342;28;20215;-82
2022/07/03 00:57:29;;;;;;;2.15;1.13;;;;;;;;;;5075263;22;20275;-77
2022/07/03 00:59:54;;;;;;;3.28;1.17;;;;;;;;;;5055650;28;20554;-77
2022/07/03 01:02:22;;;;;;;2.90;1.00;;;;;;;;;;5070975;28;20222;-76
2022/07/03 01:05:03;;;;;;;1.45;1.20;;;;;;;;;;5069377;28;20635;-76
2022/07/03 01:07:57;;;;;;;2.80;1.10;;;;;;;;;;5053620;28;20272;-77
2022/07/03 01:10:31;;;;;;;2.03;1.05;;;;;;;;;;5071192;28;20305;-76
2022/07/03 01:13:05;;;;;;;1.40;1.08;;;;;;;;;;5069707;28;20276;-76
2022/07/03 01:15:36;;;;;;;1.45;1.13;;;;;;;;;;5034081;28;20233;-77
2022/07/03 01:18:15;;;;;;;1.98;1.10;;;;;;;;;;5076021;28;20889;-77
2022/07/03 01:20:41;;;;;;;1.60;1.00;;;;;;;;;;5072863;28;20227;-76
2022/07/03 01:23:21;;;;;;;2.38;1.05;;;;;;;;;;5055665;28;20215;-77
2022/07/03 01:25:46;;;;;;;2.00;1.17;;;;;;;;;;5062061;28;20218;-76
2022/07/03 01:28:13;;;;;;;1.20;1.00;;;;;;;;;;5017030;28;21154;-77
2022/07/03 01:30:39;;;;;;;3.10;1.40;;;;;;;;;;5061834;28;20222;-76
2022/07/03 01:33:14;;;;;;;1.50;1.20;;;;;;;;;;5059545;28;20261;-77
2022/07/03 01:35:59;;;;;;;1.15;1.05;;;;;;;;;;5072186;28;20222;-78
2022/07/03 01:38:24;;;;;;;1.83;1.00;;;;;;;;;;5056724;28;20234;-78
2022/07/03 01:40:50;;;;;;;2.60;1.13;;;;;;;;;;5057350;28;20226;-77
2022/07/03 01:43:18;;;;;;;1.20;1.10;;;;;;;;;;5041048;28;20356;-77
2022/07/03 01:45:47;;;;;;;2.80;1.17;;;;;;;;;;5059642;28;20230;-78
2022/07/03 01:48:13;;;;;;;1.77;1.17;;;;;;;;;;5018089;28;20283;-77
2022/07/03 01:50:41;;;;;;;3.28;1.10;;;;;;;;;;5057211;28;20326;-78
2022/07/03 01:53:09;;;;;;;1.77;1.23;;;;;;;;;;5038664;28;20218;-78
2022/07/03 01:55:42;;;;;;;1.45;1.20;;;;;;;;;;5015435;28;20223;-78
2022/07/03 01:58:08;;;;;;;1.77;1.10;;;;;;;;;;5030444;28;20211;-76
2022/07/03 02:01:03;;;;;;;1.30;1.10;;;;;;;;;;5055946;28;20226;-78
2022/07/03 02:03:34;;;;;;;1.50;0.90;;;;;;;;;;5009770;28;20277;-78
2022/07/03 02:06:09;;;;;;;1.50;1.02;;;;;;;;;;5039198;28;20235;-78
2022/07/03 02:09:03;;;;;;;1.52;1.20;;;;;;;;;;4989516;28;20242;-78
2022/07/03 02:11:35;;;;;;;1.92;1.15;;;;;;;;;;5032285;28;20229;-77
2022/07/03 02:14:10;;;;;;;1.33;1.02;;;;;;;;;;5042301;28;20225;-77
2022/07/03 02:16:58;;;;;;;1.20;1.20;;;;;;;;;;5070876;28;20892;-77
2022/07/03 02:19:38;;;;;;;1.63;1.20;;;;;;;;;;5058491;28;20237;-77
2022/07/03 02:22:07;;;;;;;1.58;1.25;;;;;;;;;;5039456;28;20222;-78
2022/07/03 02:24:39;;;;;;;1.17;1.08;;;;;;;;;;5057407;28;20214;-77
2022/07/03 02:27:09;;;;;;;1.30;1.20;;;;;;;;;;4956187;28;20447;-78
2022/07/03 02:29:52;;;;;;;2.15;1.20;;;;;;;;;;5030778;28;20238;-77
2022/07/03 02:32:23;;;;;;;1.40;1.30;;;;;;;;;;5041218;28;20264;-78
2022/07/03 02:35:25;;;;;;;1.92;1.15;;;;;;;;;;5074040;28;20218;-78
2022/07/03 02:37:56;;;;;;;1.90;1.20;;;;;;;;;;5080185;28;20751;-78
2022/07/03 02:40:27;;;;;;;1.10;1.00;;;;;;;;;;5057397;28;20240;-77
2022/07/03 02:43:01;;;;;;;1.40;1.30;;;;;;;;;;5053545;28;20677;-77
2022/07/03 02:45:34;;;;;;;3.95;1.17;;;;;;;;;;5054531;28;20276;-77
2022/07/03 02:48:25;;;;;;;1.35;1.10;;;;;;;;;;5050017;28;20341;-76
2022/07/03 02:50:52;;;;;;;1.30;1.20;;;;;;;;;;5053402;28;20276;-76
2022/07/03 02:53:33;;;;;;;2.42;1.20;;;;;;;;;;4966582;28;20230;-76
2022/07/03 02:56:10;;;;;;;1.33;1.23;;;;;;;;;;5050850;28;20309;-76
2022/07/03 02:59:00;;;;;;;1.85;1.10;;;;;;;;;;5066961;28;20253;-76
2022/07/03 03:01:34;;;;;;;1.73;1.40;;;;;;;;;;4988362;28;20370;-77
2022/07/03 03:04:14;;;;;;;1.63;1.10;;;;;;;;;;5045500;28;20275;-77
2022/07/03 03:06:46;;;;;;;1.23;1.13;;;;;;;;;;5014650;28;20234;-77
2022/07/03 03:09:14;;;;;;;1.30;1.20;;;;;;;;;;4988496;28;20234;-77
2022/07/03 03:11:43;;;;;;;1.50;1.10;;;;;;;;;;5034168;28;20211;-77
2022/07/03 03:14:14;;;;;;;3.40;1.15;;;;;;;;;;5066992;28;20250;-77
2022/07/03 03:16:45;;;;;;;1.23;1.20;;;;;;;;;;5067417;28;20233;-76
2022/07/03 03:19:13;;;;;;;1.23;1.10;;;;;;;;;;5048674;28;20222;-76
2022/07/03 03:21:45;;;;;;;1.40;1.30;;;;;;;;;;5050034;28;20240;-76
2022/07/03 03:24:11;;;;;;;2.20;1.38;;;;;;;;;;5065146;28;20226;-76
2022/07/03 03:26:36;;;;;;;1.38;1.27;;;;;;;;;;5062232;28;20225;-76
2022/07/03 03:29:02;;;;;;;1.27;1.20;;;;;;;;;;5031316;28;20226;-76
2022/07/03 03:31:27;;;;;;;3.65;1.30;;;;;;;;;;5022817;28;20242;-77
2022/07/03 03:33:53;;;;;;;3.42;1.38;;;;;;;;;;5049680;28;20587;-76
2022/07/03 03:36:19;;;;;;;3.33;1.15;;;;;;;;;;5049288;28;20380;-76
2022/07/03 03:38:45;;;;;;;3.60;1.30;;;;;;;;;;5066417;28;20215;-77
2022/07/03 03:41:10;;;;;;;2.78;1.35;;;;;;;;;;5064796;28;20647;-76
2022/07/03 03:43:36;;;;;;;2.05;1.23;;;;;;;;;;4981032;28;20222;-77
2022/07/03 03:46:02;;;;;;;1.58;1.20;;;;;;;;;;5027020;28;20242;-77
2022/07/03 03:48:27;;;;;;;1.70;1.17;;;;;;;;;;4965636;28;20234;-76
2022/07/03 03:50:57;;;;;;;3.08;1.30;;;;;;;;;;5033169;28;20637;-77
2022/07/03 03:53:24;;;;;;;2.47;1.33;;;;;;;;;;5030254;28;20230;-77
2022/07/03 03:56:05;;;;;;;1.65;1.30;;;;;;;;;;5066039;28;20207;-76
2022/07/03 03:58:36;;;;;;;1.40;1.30;;;;;;;;;;5081774;28;20680;-77
2022/07/03 04:01:03;;;;;;;1.85;1.30;;;;;;;;;;5066284;28;20995;-77
2022/07/03 04:03:31;;;;;;;1.33;1.30;;;;;;;;;;5048586;28;20718;-76
2022/07/03 04:05:58;;;;;;;2.13;1.40;;;;;;;;;;5051855;28;20229;-77
2022/07/03 04:08:25;;;;;;;2.17;1.30;;;;;;;;;;5048846;28;20237;-77
2022/07/03 04:10:53;;;;;;;1.63;1.38;;;;;;;;;;5067963;28;20463;-77
2022/07/03 04:13:23;;;;;;;2.10;1.40;;;;;;;;;;5051417;28;20225;-78
2022/07/03 04:15:49;;;;;;;1.38;1.27;;;;;;;;;;5013076;28;20230;-76
2022/07/03 04:18:15;;;;;;;1.35;1.25;;;;;;;;;;5051936;28;20605;-77
2022/07/03 04:20:43;;;;;;;1.65;1.40;;;;;;;;;;5033916;28;20234;-77
2022/07/03 04:23:11;;;;;;;1.73;1.23;;;;;;;;;;5044764;28;20227;-77
2022/07/03 04:25:39;;;;;;;1.55;1.45;;;;;;;;;;5049511;28;20235;-77
2022/07/03 04:28:05;;;;;;;2.30;1.27;;;;;;;;;;5052111;28;20222;-77
2022/07/03 04:30:30;;;;;;;1.30;1.20;;;;;;;;;;5082679;28;20233;-77
2022/07/03 04:32:56;;;;;;;1.50;1.40;;;;;;;;;;5081182;28;20223;-77
2022/07/03 04:35:23;;;;;;;1.38;1.27;;;;;;;;;;5065152;28;20238;-77
2022/07/03 04:37:51;;;;;;;3.25;1.30;;;;;;;;;;5065752;28;20222;-77
2022/07/03 04:40:19;;;;;;;1.65;1.50;;;;;;;;;;5065245;28;20221;-76
2022/07/03 04:42:47;;;;;;;1.90;1.30;;;;;;;;;;5048332;28;20233;-77
2022/07/03 04:45:12;;;;;;;1.88;1.23;;;;;;;;;;5050437;28;20372;-77
2022/07/03 04:47:38;;;;;;;2.03;1.40;;;;;;;;;;4978964;28;20272;-78
2022/07/03 04:50:04;;;;;;;1.13;1.13;;;;;;;;;;5070380;28;20221;-77
2022/07/03 04:52:32;;;;;;;1.85;1.33;;;;;;;;;;5066146;28;20569;-77
2022/07/03 04:54:57;;;;;;;2.42;1.38;;;;;;;;;;5068298;28;20882;-77
2022/07/03 04:57:23;;;;;;;1.85;1.23;;;;;;;;;;5009770;28;20218;-77
2022/07/03 04:59:50;;;;;;;1.35;1.25;;;;;;;;;;5034909;28;20219;-76
2022/07/03 05:02:18;;;;;;;2.15;1.13;;;;;;;;;;5034501;28;20235;-77
2022/07/03 05:04:44;;;;;;;3.00;1.40;;;;;;;;;;5034538;28;20215;-77
2022/07/03 05:07:15;;;;;;;1.83;1.30;;;;;;;;;;5053907;28;20279;-77
2022/07/03 05:09:43;;;;;;;1.60;1.20;;;;;;;;;;5043863;28;20231;-76
2022/07/03 05:12:08;;;;;;;3.70;1.33;;;;;;;;;;5019438;28;20988;-77
2022/07/03 05:14:36;;;;;;;1.40;1.30;;;;;;;;;;5069621;28;20709;-77
2022/07/03 05:17:04;;;;;;;1.30;1.20;;;;;;;;;;5073720;28;20367;-76
2022/07/03 05:19:34;;;;;;;1.42;1.33;;;;;;;;;;5009510;28;20305;-76
2022/07/03 05:22:00;;;;;;;2.55;1.25;;;;;;;;;;5068563;28;20222;-77
2022/07/03 05:24:25;;;;;;;1.42;1.30;;;;;;;;;;5056164;28;20223;-76
2022/07/03 05:26:53;;;;;;;1.52;1.30;;;;;;;;;;5078037;28;20625;-77
2022/07/03 05:29:18;;;;;;;1.73;1.20;;;;;;;;;;5072490;28;20237;-77
2022/07/03 05:31:44;;;;;;;1.75;1.20;;;;;;;;;;5058993;28;20235;-76
2022/07/03 05:34:09;;;;;;;1.38;1.23;;;;;;;;;;5066984;28;20222;-77
2022/07/03 05:36:40;;;;;;;1.80;1.58;;;;;;;;;;5062171;28;20223;-76
2022/07/03 05:41:49;;;;;;;1.55;1.27;;;;;;;;;;5068510;28;20621;-77
2022/07/03 05:44:15;;;;;;;2.13;1.40;;;;;;;;;;5069083;28;20218;-76
2022/07/03 05:46:43;;;;;;;1.42;1.23;;;;;;;;;;5069476;28;20237;-76
2022/07/03 05:49:08;;;;;;;3.17;1.27;;;;;;;;;;5050318;28;20227;-77
2022/07/03 05:51:36;;;;;;;1.27;1.23;;;;;;;;;;5069226;28;20222;-76
2022/07/03 05:54:01;;;;;;;2.65;1.33;;;;;;;;;;5067946;28;20227;-76
2022/07/03 05:56:27;;;;;;;1.52;1.20;;;;;;;;;;4988871;28;20241;-76
2022/07/03 05:58:55;;;;;;;1.48;1.25;;;;;;;;;;4961839;28;20230;-77
2022/07/03 06:01:20;;;;;;;2.10;1.38;;;;;;;;;;5050964;28;20227;-77
2022/07/03 06:03:46;;;;;;;3.85;1.33;;;;;;;;;;5027505;28;20226;-76
2022/07/03 06:06:11;;;;;;;1.88;1.38;;;;;;;;;;5049814;28;20214;-76
2022/07/03 06:08:37;;;;;;;1.75;1.30;;;;;;;;;;5051553;28;20234;-77
2022/07/03 06:11:05;;;;;;;1.65;1.30;;;;;;;;;;5025817;28;20238;-76
2022/07/03 06:13:34;;;;;;;5.60;1.63;;;;;;;;;;5037511;28;20218;-76
2022/07/03 06:16:02;;;;;;;1.77;1.30;;;;;;;;;;5074502;28;20210;-77
2022/07/03 06:18:30;;;;;;;1.30;1.17;;;;;;;;;;5066312;28;20241;-76
2022/07/03 06:20:58;;;;;;;4.05;1.35;;;;;;;;;;5039364;28;20222;-76
2022/07/03 06:23:23;;;;;;;1.23;1.20;;;;;;;;;;5068518;23;20234;-83
2022/07/03 06:25:49;;;;;;;1.42;1.27;;;;;;;;;;4935589;29;20231;-82
2022/07/03 06:28:17;;;;;;;1.30;1.30;;;;;;;;;;4934013;29;20223;-81
2022/07/03 06:30:43;;;;;;;1.42;1.30;;;;;;;;;;5001944;28;20228;-83
2022/07/03 06:33:08;;;;;;;2.53;1.30;;;;;;;;;;4930883;28;20227;-83
2022/07/03 06:35:34;;;;;;;1.30;1.20;;;;;;;;;;4967972;28;20239;-84
2022/07/03 06:38:03;;;;;;;2.13;1.20;;;;;;;;;;4910734;28;20228;-84
2022/07/03 06:40:28;;;;;;;1.40;1.30;;;;;;;;;;4915748;28;20232;-83
2022/07/03 06:42:54;;;;;;;1.38;1.27;;;;;;;;;;4929115;29;20226;-82
2022/07/03 06:45:19;;;;;;;1.88;1.40;;;;;;;;;;4923928;28;20224;-83
2022/07/03 06:47:45;;;;;;;2.17;1.10;;;;;;;;;;4907769;29;20644;-81
2022/07/03 06:50:10;;;;;;;3.92;1.30;;;;;;;;;;4910142;28;20223;-85
2022/07/03 06:52:36;;;;;;;1.48;1.10;;;;;;;;;;4916669;29;20249;-84
2022/07/03 06:55:02;;;;;;;1.70;1.23;;;;;;;;;;4948669;28;20450;-82
2022/07/03 06:57:30;;;;;;;1.38;1.05;;;;;;;;;;4916671;28;20574;-83
2022/07/03 06:59:56;;;;;;;1.75;1.10;;;;;;;;;;4929987;29;20260;-83
2022/07/03 07:02:24;;;;;;;1.40;1.20;;;;;;;;;;4929744;28;20232;-81
2022/07/03 07:04:49;;;;;;;1.90;1.05;;;;;;;;;;4945944;28;20249;-83
2022/07/03 07:07:15;;;;;;;1.08;1.02;;;;;;;;;;4923860;28;20223;-82
2022/07/03 07:09:43;;;;;;;2.08;1.30;;;;;;;;;;4919182;29;20281;-83
2022/07/03 07:12:08;;;;;;;1.50;1.00;;;;;;;;;;4910990;28;20772;-83
2022/07/03 07:14:36;;;;;;;1.25;1.15;;;;;;;;;;4940903;28;20210;-83
2022/07/03 07:17:02;;;;;;;1.15;1.10;;;;;;;;;;4917369;29;20292;-82
2022/07/03 07:19:28;;;;;;;0.90;0.90;;;;;;;;;;4897678;29;20368;-83
2022/07/03 07:21:55;;;;;;;3.50;1.23;;;;;;;;;;4929845;29;20281;-83
2022/07/03 07:24:21;;;;;;;1.52;1.13;;;;;;;;;;4916773;28;20211;-83
2022/07/03 07:26:46;;;;;;;2.60;1.15;;;;;;;;;;4921817;29;20276;-84
2022/07/03 07:29:13;;;;;;;2.55;1.40;;;;;;;;;;4919972;28;20439;-79
2022/07/03 07:31:38;;;;;;;1.25;1.08;;;;;;;;;;4924240;29;20227;-81
2022/07/03 07:34:04;;;;;;;1.05;1.00;;;;;;;;;;4942285;28;20227;-84
2022/07/03 07:36:31;;;;;;;1.88;1.30;;;;;;;;;;4962603;29;20226;-81
2022/07/03 07:38:56;;;;;;;1.50;1.23;;;;;;;;;;4949452;28;20226;-83
2022/07/03 07:41:22;;;;;;;1.23;1.13;;;;;;;;;;4979881;28;20664;-81
2022/07/03 07:47:38;;;;;;;2.42;1.17;;;;;;;;;;5059064;28;20265;-82
2022/07/03 07:50:05;;;;;;;1.50;1.13;;;;;;;;;;5054502;22;20221;-82
2022/07/03 07:52:34;;;;;;;1.38;1.10;;;;;;;;;;5048264;28;20305;-80
2022/07/03 07:55:00;;;;;;;1.73;1.10;;;;;;;;;;5110269;28;20205;-81
2022/07/03 08:06:48;;;;;;;1.50;1.30;;;;;;;;;;4998654;28;20632;-83
2022/07/03 08:09:16;;;;;;;2.53;1.40;;;;;;;;;;4986752;22;20644;-78
2022/07/03 08:11:44;;;;;;;1.20;1.05;;;;;;;;;;5019971;28;20239;-79
2022/07/03 08:14:10;;;;;;;3.88;1.38;;;;;;;;;;5050195;28;20222;-78
2022/07/03 08:16:36;;;;;;;1.35;1.10;;;;;;;;;;5044780;28;20219;-78
2022/07/03 08:19:06;;;;;;;3.25;1.20;;;;;;;;;;5031360;28;20593;-80
2022/07/03 08:21:34;;;;;;;1.88;1.15;;;;;;;;;;5043009;28;20251;-77
2022/07/03 08:24:00;;;;;;;2.67;1.23;;;;;;;;;;5037150;28;20228;-78
2022/07/03 08:26:25;;;;;;;1.83;1.20;;;;;;;;;;5041066;28;20223;-75
2022/07/03 08:28:51;;;;;;;3.35;1.33;;;;;;;;;;5021043;28;20237;-74
2022/07/03 08:31:17;;;;;;;2.40;1.10;;;;;;;;;;5022912;28;20231;-78
2022/07/03 08:33:44;;;;;;;1.30;1.20;;;;;;;;;;5021359;28;20937;-77
2022/07/03 08:36:13;;;;;;;2.17;1.30;;;;;;;;;;5033352;28;20298;-77
2022/07/03 08:38:38;;;;;;;3.95;1.25;;;;;;;;;;5018029;28;20319;-75
2022/07/03 08:41:11;;;;;;;2.30;1.17;;;;;;;;;;5036108;28;20228;-74
2022/07/03 08:43:39;;;;;;;3.38;1.20;;;;;;;;;;5021483;28;20617;-74
2022/07/03 08:46:04;;;;;;;2.13;1.23;;;;;;;;;;5016003;28;20264;-79
2022/07/03 08:48:35;;;;;;;1.45;1.10;;;;;;;;;;5031094;28;20240;-73
2022/07/03 08:51:00;;;;;;;1.45;1.23;;;;;;;;;;5030638;28;20717;-73
2022/07/03 08:53:31;;;;;;;3.35;1.40;;;;;;;;;;5012462;28;20223;-75
2022/07/03 08:55:57;;;;;;;4.10;1.40;;;;;;;;;;5021791;28;20239;-76
2022/07/03 08:58:23;;;;;;;2.83;1.20;;;;;;;;;;5040685;28;20227;-75
2022/07/03 09:00:48;;;;;;;1.63;1.15;;;;;;;;;;4998490;28;20251;-76
2022/07/03 09:03:14;;;;;;;1.70;1.20;;;;;;;;;;5024348;28;20219;-76
2022/07/03 09:05:40;;;;;;;1.77;1.25;;;;;;;;;;5041263;28;20211;-74
2022/07/03 09:08:11;;;;;;;1.58;1.13;;;;;;;;;;5024111;28;20266;-77
2022/07/03 09:10:37;;;;;;;1.73;1.08;;;;;;;;;;5012401;28;20788;-78
2022/07/03 09:13:02;;;;;;;2.97;1.23;;;;;;;;;;5012361;28;20873;-77
2022/07/03 09:15:28;;;;;;;3.17;1.20;;;;;;;;;;5045915;28;20231;-74
2022/07/03 09:18:04;;;;;;;1.30;1.20;;;;;;;;;;5038814;28;20231;-73
2022/07/03 09:20:37;;;;;;;1.85;1.25;;;;;;;;;;5009013;28;20243;-73
2022/07/03 09:23:17;;;;;;;2.35;1.48;;;;;;;;;;5020603;28;20234;-75
2022/07/03 09:25:56;;;;;;;1.48;1.17;;;;;;;;;;5027492;28;20223;-73
2022/07/03 09:28:42;;;;;;;2.72;1.20;;;;;;;;;;5028539;28;20262;-75
2022/07/03 09:31:08;;;;;;;2.15;1.33;;;;;;;;;;5035366;28;20227;-74
2022/07/03 09:33:33;;;;;;;2.78;1.20;;;;;;;;;;5023159;28;20651;-72
2022/07/03 09:35:59;;;;;;;1.92;1.20;;;;;;;;;;5019906;28;20349;-72
2022/07/03 09:38:27;;;;;;;2.05;1.27;;;;;;;;;;5005550;28;20227;-72
2022/07/03 09:40:58;;;;;;;1.50;1.40;;;;;;;;;;5047380;28;20223;-74
2022/07/03 09:43:30;;;;;;;2.58;1.20;;;;;;;;;;5036555;28;20224;-72
2022/07/03 09:45:57;;;;;;;2.10;1.10;;;;;;;;;;5024722;28;20226;-78
2022/07/03 09:48:29;;;;;;;2.90;1.00;;;;;;;;;;5042004;28;20306;-76
2022/07/03 09:51:28;;;;;;;3.65;1.17;;;;;;;;;;5021292;28;20239;-76
2022/07/03 09:54:00;;;;;;;2.97;1.30;;;;;;;;;;5045060;28;20228;-77
2022/07/03 09:56:35;;;;;;;3.42;1.20;;;;;;;;;;5040028;28;20227;-73
2022/07/03 09:59:10;;;;;;;1.95;1.00;;;;;;;;;;5008950;28;20216;-72
2022/07/03 10:01:45;;;;;;;2.05;0.93;;;;;;;;;;5036961;28;20231;-74
2022/07/03 10:04:13;;;;;;;4.50;1.10;;;;;;;;;;5043360;28;20256;-77
2022/07/03 10:06:51;;;;;;;1.98;0.88;;;;;;;;;;5025766;28;20227;-75
2022/07/03 10:09:20;;;;;;;1.38;1.00;;;;;;;;;;5031666;28;20251;-76
2022/07/03 10:11:46;;;;;;;1.00;0.88;;;;;;;;;;5027326;28;20216;-76
2022/07/03 10:14:16;;;;;;;1.38;0.90;;;;;;;;;;5020347;28;20239;-77
2022/07/03 10:16:42;;;;;;;2.40;0.80;;;;;;;;;;5019518;28;20309;-77
2022/07/03 10:19:10;;;;;;;1.38;0.90;;;;;;;;;;5019466;28;20216;-77
2022/07/03 10:21:35;;;;;;;3.47;1.13;;;;;;;;;;5019880;28;20215;-75
2022/07/03 10:24:02;;;;;;;4.97;1.13;;;;;;;;;;4993872;28;20714;-76
2022/07/03 10:26:29;;;;;;;2.33;0.80;;;;;;;;;;5002438;28;20220;-75
2022/07/03 10:28:55;;;;;;;3.70;1.27;;;;;;;;;;5028968;28;20277;-76
2022/07/03 10:31:23;;;;;;;2.42;1.10;;;;;;;;;;5027467;28;20318;-75
2022/07/03 10:33:48;;;;;;;1.25;1.10;;;;;;;;;;5029175;28;20229;-76
2022/07/03 10:36:14;;;;;;;1.75;0.95;;;;;;;;;;5043707;28;20227;-75
2022/07/03 10:38:42;;;;;;;1.20;0.90;;;;;;;;;;5021706;28;20219;-78
2022/07/03 10:44:48;;;;;;;1.73;0.90;;;;;;;;;;5042693;28;20238;-75
2022/07/03 10:47:35;;;;;;;1.77;1.00;;;;;;;;;;5034354;28;20227;-71
2022/07/03 10:50:06;;;;;;;1.48;0.90;;;;;;;;;;5034389;28;20278;-71
2022/07/03 10:52:32;;;;;;;1.42;0.88;;;;;;;;;;5021182;28;20603;-73
2022/07/03 10:55:01;;;;;;;3.35;0.88;;;;;;;;;;5036946;28;20216;-74
2022/07/03 10:57:29;;;;;;;2.00;1.23;;;;;;;;;;5037836;28;20220;-77
2022/07/03 11:00:00;;;;;;;2.30;0.80;;;;;;;;;;5028945;28;20230;-77
2022/07/03 11:02:33;;;;;;;1.15;0.90;;;;;;;;;;5021045;28;20229;-79
2022/07/03 11:05:03;;;;;;;1.75;0.75;;;;;;;;;;5048210;28;20709;-79
2022/07/03 11:07:39;;;;;;;1.48;0.80;;;;;;;;;;5041742;28;20278;-78
2022/07/03 11:10:13;;;;;;;0.90;0.80;;;;;;;;;;5026178;28;20285;-81
2022/07/03 11:13:15;;;;;;;1.58;0.90;;;;;;;;;;5037871;28;20222;-75
2022/07/03 11:15:44;;;;;;;2.63;0.93;;;;;;;;;;5052873;28;20234;-76
2022/07/03 11:18:32;;;;;;;1.20;0.90;;;;;;;;;;5040638;28;20216;-77
2022/07/03 11:21:01;;;;;;;1.60;0.90;;;;;;;;;;5043319;28;20223;-78
2022/07/03 11:23:27;;;;;;;1.17;0.85;;;;;;;;;;5040833;28;20232;-77
2022/07/03 11:26:08;;;;;;;5.82;1.00;;;;;;;;;;5039505;28;20303;-74
2022/07/03 11:28:33;;;;;;;2.40;0.80;;;;;;;;;;5042363;28;20226;-76
2022/07/03 11:31:13;;;;;;;1.15;0.88;;;;;;;;;;5034363;28;20227;-77
2022/07/03 11:33:56;;;;;;;1.70;0.90;;;;;;;;;;5042309;28;20243;-78
2022/07/03 11:36:25;;;;;;;0.95;0.80;;;;;;;;;;5037830;28;20716;-78
2022/07/03 11:39:20;;;;;;;2.95;1.10;;;;;;;;;;5039320;28;20227;-78
2022/07/03 11:41:48;;;;;;;0.93;0.80;;;;;;;;;;5046153;28;20224;-80
2022/07/03 11:44:16;;;;;;;4.55;0.88;;;;;;;;;;5047439;28;20298;-76
2022/07/03 11:46:46;;;;;;;1.05;0.73;;;;;;;;;;4994225;28;20235;-78
2022/07/03 11:49:22;;;;;;;3.20;0.85;;;;;;;;;;5010640;28;20600;-76
2022/07/03 11:52:01;;;;;;;1.55;0.77;;;;;;;;;;5011245;28;20226;-78
2022/07/03 11:54:49;;;;;;;0.80;0.70;;;;;;;;;;5031116;28;20307;-78
2022/07/03 11:57:17;;;;;;;0.98;0.70;;;;;;;;;;5032087;28;20219;-82
2022/07/03 11:59:45;;;;;;;2.28;0.93;;;;;;;;;;5043650;28;20223;-78
2022/07/03 12:02:13;;;;;;;2.92;0.93;;;;;;;;;;5025151;28;20219;-78
2022/07/03 12:04:40;;;;;;;1.27;0.80;;;;;;;;;;5040535;28;20253;-77
2022/07/03 12:07:11;;;;;;;2.35;0.90;;;;;;;;;;5041653;28;20223;-79
2022/07/03 12:09:41;;;;;;;1.55;0.90;;;;;;;;;;5009369;28;20220;-77
2022/07/03 12:12:11;;;;;;;1.67;1.10;;;;;;;;;;5043874;28;20230;-81
2022/07/03 12:14:46;;;;;;;1.00;0.90;;;;;;;;;;5059051;28;20219;-79
2022/07/03 12:17:24;;;;;;;1.95;0.82;;;;;;;;;;5051458;28;20225;-81
2022/07/03 12:20:00;;;;;;;0.80;0.80;;;;;;;;;;5023758;28;20219;-80
2022/07/03 12:22:32;;;;;;;2.08;0.90;;;;;;;;;;5034999;28;20232;-79
2022/07/03 12:25:10;;;;;;;2.97;0.90;;;;;;;;;;5042954;28;20222;-79
2022/07/03 12:27:40;;;;;;;0.98;0.70;;;;;;;;;;5046750;28;20233;-79
2022/07/03 12:30:13;;;;;;;1.42;0.95;;;;;;;;;;5017333;28;21092;-79
2022/07/03 12:32:38;;;;;;;1.35;0.90;;;;;;;;;;5028163;28;20250;-78
2022/07/03 12:35:05;;;;;;;1.10;1.00;;;;;;;;;;5035173;28;20216;-79
2022/07/03 12:37:40;;;;;;;4.85;1.00;;;;;;;;;;5044714;28;20665;-78
2022/07/03 12:40:09;;;;;;;1.55;1.10;;;;;;;;;;5018817;28;20221;-77
2022/07/03 12:42:58;;;;;;;0.98;0.80;;;;;;;;;;5043647;28;20358;-78
2022/07/03 12:45:27;;;;;;;1.77;1.05;;;;;;;;;;5042654;28;20275;-77
2022/07/03 12:47:57;;;;;;;2.90;1.05;;;;;;;;;;5048947;28;20259;-77
2022/07/03 12:50:28;;;;;;;1.70;1.20;;;;;;;;;;5027820;28;20317;-78
2022/07/03 12:52:56;;;;;;;2.28;0.93;;;;;;;;;;5007577;28;20235;-75
2022/07/03 12:55:25;;;;;;;1.20;0.98;;;;;;;;;;5023300;28;20638;-76
2022/07/03 13:01:01;;;;;;;1.30;0.90;;;;;;;;;;5030899;28;20615;-76
2022/07/03 13:03:31;;;;;;;2.15;1.00;;;;;;;;;;5022619;28;20212;-78
2022/07/03 13:05:58;;;;;;;2.30;0.90;;;;;;;;;;5030250;28;20269;-76
2022/07/03 13:08:24;;;;;;;1.08;0.90;;;;;;;;;;5014528;28;20213;-77
2022/07/03 13:10:57;;;;;;;1.48;0.98;;;;;;;;;;5023577;28;20674;-76
2022/07/03 13:13:23;;;;;;;0.93;0.77;;;;;;;;;;5022565;28;20219;-74
2022/07/03 13:15:53;;;;;;;1.08;1.00;;;;;;;;;;5042436;28;20247;-76
2022/07/03 13:18:19;;;;;;;0.73;0.70;;;;;;;;;;5010454;28;20228;-77
2022/07/03 13:20:45;;;;;;;5.65;1.00;;;;;;;;;;5042101;28;20572;-76
2022/07/03 13:23:10;;;;;;;1.35;0.70;;;;;;;;;;5025919;28;20223;-76
2022/07/03 13:25:42;;;;;;;1.98;0.70;;;;;;;;;;5044121;28;20273;-76
2022/07/03 13:28:12;;;;;;;0.82;0.70;;;;;;;;;;5028844;28;20646;-75
2022/07/03 13:30:41;;;;;;;1.27;0.80;;;;;;;;;;5026703;28;20224;-76
2022/07/03 13:33:08;;;;;;;2.00;0.65;;;;;;;;;;5016043;28;20251;-78
2022/07/03 13:35:34;;;;;;;2.13;0.80;;;;;;;;;;5020266;28;20255;-75
2022/07/03 13:38:02;;;;;;;1.70;0.82;;;;;;;;;;5030931;28;20216;-75
2022/07/03 13:40:28;;;;;;;1.67;0.75;;;;;;;;;;5032933;28;20231;-74
2022/07/03 13:42:59;;;;;;;1.23;0.60;;;;;;;;;;5020952;28;20224;-76
2022/07/03 13:45:25;;;;;;;1.55;0.90;;;;;;;;;;5028031;28;20664;-74
2022/07/03 13:47:53;;;;;;;0.77;0.70;;;;;;;;;;5023084;28;20248;-77
2022/07/03 13:50:18;;;;;;;1.25;0.70;;;;;;;;;;5039114;28;20747;-77
2022/07/03 13:52:44;;;;;;;1.73;0.90;;;;;;;;;;5024058;28;20235;-76
2022/07/03 13:55:09;;;;;;;3.63;0.80;;;;;;;;;;5040901;28;20224;-75
2022/07/03 13:57:37;;;;;;;0.90;0.73;;;;;;;;;;5023723;28;20231;-77
2022/07/03 14:00:06;;;;;;;1.33;0.60;;;;;;;;;;5046809;28;20278;-77
2022/07/03 14:02:35;;;;;;;1.23;0.70;;;;;;;;;;5025905;28;20224;-77
2022/07/03 14:05:00;;;;;;;0.95;0.70;;;;;;;;;;5010646;28;20684;-77
2022/07/03 14:07:26;;;;;;;2.30;0.70;;;;;;;;;;5008787;28;20220;-77
2022/07/03 14:09:56;;;;;;;1.88;0.60;;;;;;;;;;5054547;28;20759;-77
2022/07/03 14:12:22;;;;;;;1.05;0.70;;;;;;;;;;5038730;28;20232;-77
2022/07/03 14:14:52;;;;;;;1.13;0.60;;;;;;;;;;5013436;28;20720;-79
2022/07/03 14:17:18;;;;;;;0.93;0.60;;;;;;;;;;5024580;28;20303;-76
2022/07/03 14:19:48;;;;;;;1.02;0.60;;;;;;;;;;5020241;28;20864;-76
2022/07/03 14:22:13;;;;;;;0.52;0.47;;;;;;;;;;5039912;28;20228;-78
2022/07/03 14:24:39;;;;;;;1.50;0.60;;;;;;;;;;5025051;28;20220;-77
2022/07/03 14:32:35;;;;;;;1.15;0.52;;;;;;;;;;5041477;28;20697;-77
2022/07/03 14:35:02;;;;;;;3.65;0.63;;;;;;;;;;5036191;28;20220;-78
2022/07/03 14:37:29;;;;;;;0.88;0.70;;;;;;;;;;5038564;28;20690;-77
2022/07/03 14:39:54;;;;;;;1.58;0.70;;;;;;;;;;5021669;28;20649;-76
2022/07/03 14:42:24;;;;;;;1.63;0.70;;;;;;;;;;5037761;28;20307;-77
2022/07/03 14:44:49;;;;;;;0.60;0.60;;;;;;;;;;5025162;28;21008;-78
2022/07/03 14:47:21;;;;;;;1.02;0.70;;;;;;;;;;5033569;28;20701;-78
2022/07/03 14:49:49;;;;;;;2.80;0.73;;;;;;;;;;5043396;28;20294;-76
2022/07/03 14:52:15;;;;;;;1.23;0.70;;;;;;;;;;5058362;28;20224;-76
2022/07/03 14:54:43;;;;;;;1.02;0.70;;;;;;;;;;5039081;28;20740;-77
2022/07/03 14:57:27;;;;;;;1.95;0.80;;;;;;;;;;5007515;28;20247;-76
2022/07/03 15:00:05;;;;;;;0.80;0.60;;;;;;;;;;5039835;28;20226;-76
2022/07/03 15:03:05;;;;;;;1.45;0.70;;;;;;;;;;5053592;28;20227;-76
2022/07/03 15:05:34;;;;;;;0.63;0.60;;;;;;;;;;5043961;28;20353;-77
2022/07/03 15:08:05;;;;;;;1.95;0.90;;;;;;;;;;5011765;28;20690;-75
2022/07/03 15:10:34;;;;;;;2.78;0.60;;;;;;;;;;5036365;28;20222;-76
2022/07/03 15:13:01;;;;;;;1.48;0.55;;;;;;;;;;5008756;28;20307;-74
2022/07/03 15:15:27;;;;;;;2.45;0.70;;;;;;;;;;5034259;28;20211;-75
2022/07/03 15:17:52;;;;;;;2.88;0.80;;;;;;;;;;5009659;28;20241;-74
2022/07/03 15:20:19;;;;;;;1.15;0.68;;;;;;;;;;4998534;28;20784;-75
2022/07/03 15:22:45;;;;;;;2.47;0.70;;;;;;;;;;5007472;28;20717;-76
2022/07/03 15:25:18;;;;;;;1.88;0.52;;;;;;;;;;5005945;28;20880;-75
2022/07/03 15:27:52;;;;;;;0.60;0.60;;;;;;;;;;5039525;28;20219;-75
2022/07/03 15:30:20;;;;;;;0.65;0.60;;;;;;;;;;5013518;28;20220;-76